Time;durP1;ratioP1;P1;durP2;ratioP2;P2;SDS_P1;SDS_P2;PMS_P1;PMS_P2;Temp;Humidity;BMP_temperature;BMP_pressure;BME280_temperature;BME280_humidity;BME280_pressure;Samples;Min_cycle;Max_cycle;Signal;HPM_P1;HPM_P2
2022/11/01 00:01:09;;;;;;;26.67;15.63;;;14.60;99.90;;;;;;5119117;28;20085;-77
2022/11/01 00:03:35;;;;;;;37.00;15.18;;;14.60;99.90;;;;;;5117678;28;20082;-77
2022/11/01 00:06:00;;;;;;;29.38;15.43;;;14.60;99.90;;;;;;5117871;28;20040;-78
2022/11/01 00:08:26;;;;;;;27.13;15.05;;;14.60;99.90;;;;;;5117877;28;20082;-77
2022/11/01 00:10:52;;;;;;;30.20;15.45;;;14.60;99.90;;;;;;5118576;28;20038;-77
2022/11/01 00:13:18;;;;;;;29.90;14.95;;;14.50;99.90;;;;;;5118971;27;20352;-77
2022/11/01 00:15:43;;;;;;;26.90;14.43;;;14.50;99.90;;;;;;5118658;28;20039;-77
2022/11/01 00:18:09;;;;;;;26.33;14.40;;;14.60;99.90;;;;;;5118726;28;20424;-77
2022/11/01 00:20:34;;;;;;;26.23;14.88;;;14.60;99.90;;;;;;5118413;28;20112;-78
2022/11/01 00:23:00;;;;;;;23.85;13.45;;;14.70;99.90;;;;;;5117682;28;20043;-77
2022/11/01 00:25:27;;;;;;;29.23;14.85;;;14.70;99.90;;;;;;5118536;28;20124;-78
2022/11/01 00:27:53;;;;;;;25.80;13.68;;;14.70;99.90;;;;;;5117410;28;20336;-78
2022/11/01 00:30:18;;;;;;;29.65;14.98;;;14.80;99.90;;;;;;5118433;28;20032;-77
2022/11/01 00:32:44;;;;;;;24.10;14.18;;;14.80;99.90;;;;;;5118269;28;20127;-77
2022/11/01 00:35:09;;;;;;;24.27;14.15;;;14.80;99.90;;;;;;5118072;28;20050;-78
2022/11/01 00:37:35;;;;;;;25.83;14.27;;;14.70;99.90;;;;;;5118322;28;20047;-78
2022/11/01 00:40:01;;;;;;;25.30;14.27;;;14.70;99.90;;;;;;5117905;28;20043;-78
2022/11/01 00:42:26;;;;;;;26.33;14.73;;;14.70;99.90;;;;;;5151517;27;20036;-78
2022/11/01 00:44:52;;;;;;;32.95;15.05;;;14.70;99.90;;;;;;5118201;28;20046;-77
2022/11/01 00:47:18;;;;;;;28.02;14.93;;;14.70;99.90;;;;;;5118139;28;20035;-77
2022/11/01 00:49:44;;;;;;;28.10;13.18;;;14.60;99.90;;;;;;5118031;28;20036;-77
2022/11/01 00:52:10;;;;;;;31.13;14.55;;;14.70;99.90;;;;;;5117958;28;20032;-77
2022/11/01 00:54:35;;;;;;;26.42;13.90;;;14.70;99.90;;;;;;5118237;28;20067;-77
2022/11/01 00:57:01;;;;;;;28.15;14.60;;;14.80;99.90;;;;;;5118096;28;20031;-77
2022/11/01 00:59:26;;;;;;;22.70;14.07;;;14.90;99.90;;;;;;5118092;28;20173;-78
2022/11/01 01:01:52;;;;;;;26.60;12.80;;;15.00;99.90;;;;;;5116738;28;20035;-77
2022/11/01 01:04:18;;;;;;;26.27;13.55;;;15.00;99.90;;;;;;5117827;28;20050;-78
2022/11/01 01:06:44;;;;;;;26.90;14.10;;;15.00;99.90;;;;;;5117624;28;20040;-78
2022/11/01 01:09:10;;;;;;;24.13;13.02;;;15.00;99.90;;;;;;5116843;28;20114;-78
2022/11/01 01:11:35;;;;;;;24.42;12.68;;;14.90;99.90;;;;;;5117327;28;20048;-78
2022/11/01 01:14:01;;;;;;;28.70;13.15;;;14.90;99.90;;;;;;5117583;28;20088;-77
2022/11/01 01:16:27;;;;;;;22.38;12.23;;;14.90;99.90;;;;;;5116871;28;20039;-78
2022/11/01 01:18:52;;;;;;;23.50;11.93;;;14.90;99.90;;;;;;5117366;28;20044;-78
2022/11/01 01:21:18;;;;;;;29.88;14.23;;;14.90;99.90;;;;;;5117336;28;20039;-78
2022/11/01 01:23:45;;;;;;;29.08;12.88;;;14.90;99.90;;;;;;5117356;28;20043;-77
2022/11/01 01:26:11;;;;;;;25.33;12.05;;;14.90;99.90;;;;;;5117565;28;20040;-78
2022/11/01 01:28:37;;;;;;;25.15;11.95;;;14.90;99.90;;;;;;5116311;28;20035;-78
2022/11/01 01:31:08;;;;;;;23.85;12.48;;;14.90;99.90;;;;;;5116928;28;20031;-77
2022/11/01 01:33:34;;;;;;;25.58;12.30;;;14.90;99.90;;;;;;5116409;28;20070;-78
2022/11/01 01:36:01;;;;;;;26.02;12.45;;;14.90;99.90;;;;;;5117201;28;20039;-78
2022/11/01 01:38:27;;;;;;;23.60;12.68;;;15.00;99.90;;;;;;5117365;28;20084;-78
2022/11/01 01:40:52;;;;;;;23.30;11.93;;;15.10;99.90;;;;;;5116745;28;20114;-78
2022/11/01 01:43:18;;;;;;;25.98;12.70;;;15.00;99.90;;;;;;5117202;28;20039;-77
2022/11/01 01:45:44;;;;;;;20.00;10.95;;;15.00;99.90;;;;;;5116771;28;20056;-77
2022/11/01 01:48:12;;;;;;;23.95;11.82;;;15.00;99.90;;;;;;5117166;28;20105;-78
2022/11/01 01:50:52;;;;;;;23.45;11.55;;;15.10;99.90;;;;;;5116945;28;20427;-77
2022/11/01 01:53:26;;;;;;;21.77;12.05;;;15.10;99.90;;;;;;5098940;28;20136;-77
2022/11/01 01:56:03;;;;;;;22.05;11.20;;;15.10;99.90;;;;;;5116026;28;20455;-78
2022/11/01 01:58:33;;;;;;;24.23;11.15;;;15.10;99.90;;;;;;5116937;28;20039;-78
2022/11/01 02:01:00;;;;;;;21.80;10.65;;;15.10;99.90;;;;;;5116976;28;20039;-78
2022/11/01 02:03:32;;;;;;;22.10;10.57;;;15.00;99.90;;;;;;5116615;28;20047;-77
2022/11/01 02:06:11;;;;;;;18.65;10.13;;;15.10;99.90;;;;;;5116945;28;20135;-78
2022/11/01 02:08:40;;;;;;;24.90;10.85;;;14.90;99.90;;;;;;5116818;28;20424;-78
2022/11/01 02:11:08;;;;;;;24.70;11.07;;;14.90;99.90;;;;;;5116384;28;20040;-78
2022/11/01 02:13:34;;;;;;;26.13;11.20;;;15.00;99.90;;;;;;5116800;28;20071;-78
2022/11/01 02:16:05;;;;;;;21.73;11.43;;;15.10;99.90;;;;;;5116841;28;20068;-78
2022/11/01 02:18:39;;;;;;;21.38;10.65;;;15.20;99.90;;;;;;5116953;28;20127;-79
2022/11/01 02:21:29;;;;;;;20.50;10.40;;;15.20;99.90;;;;;;5116794;28;20098;-78
2022/11/01 02:24:28;;;;;;;18.60;10.07;;;15.20;99.90;;;;;;5116544;28;20081;-78
2022/11/01 02:27:17;;;;;;;18.90;9.48;;;15.20;99.90;;;;;;5116963;28;20054;-77
2022/11/01 02:29:52;;;;;;;17.42;9.45;;;15.10;99.90;;;;;;5116542;28;20050;-77
2022/11/01 02:32:32;;;;;;;19.92;9.88;;;15.10;99.90;;;;;;5116655;28;20063;-77
2022/11/01 02:35:01;;;;;;;19.60;9.68;;;15.10;99.90;;;;;;5116719;28;20036;-78
2022/11/01 02:37:48;;;;;;;16.30;9.05;;;15.20;99.90;;;;;;5116509;28;20071;-78
2022/11/01 02:40:21;;;;;;;21.90;9.45;;;15.20;99.90;;;;;;5116314;28;20105;-79
2022/11/01 02:42:53;;;;;;;23.10;9.05;;;15.30;99.90;;;;;;5116706;28;20048;-77
2022/11/01 02:45:38;;;;;;;17.90;9.30;;;15.20;99.90;;;;;;5116382;28;20052;-78
2022/11/01 02:48:06;;;;;;;19.83;9.93;;;15.30;99.90;;;;;;5116507;28;20437;-77
2022/11/01 02:50:54;;;;;;;22.15;9.32;;;15.30;99.90;;;;;;5116397;28;20063;-77
2022/11/01 02:53:20;;;;;;;19.63;9.18;;;15.30;99.90;;;;;;5116681;28;20078;-78
2022/11/01 02:55:46;;;;;;;16.98;8.88;;;15.30;99.90;;;;;;5116663;28;20416;-78
2022/11/01 02:58:27;;;;;;;21.13;9.10;;;15.30;99.90;;;;;;5116195;28;20038;-78
2022/11/01 03:00:55;;;;;;;19.00;8.25;;;15.40;99.90;;;;;;5116370;28;20047;-78
2022/11/01 03:03:22;;;;;;;22.23;8.65;;;15.30;99.90;;;;;;5119167;28;20044;-78
2022/11/01 03:06:12;;;;;;;17.45;8.20;;;15.40;99.90;;;;;;5153735;27;20320;-78
2022/11/01 03:08:52;;;;;;;15.68;7.93;;;15.40;99.90;;;;;;5118992;28;20171;-78
2022/11/01 03:11:26;;;;;;;20.48;8.70;;;15.50;99.90;;;;;;5119755;28;20075;-78
2022/11/01 03:14:06;;;;;;;15.55;8.43;;;15.50;99.90;;;;;;5119891;27;20039;-78
2022/11/01 03:16:47;;;;;;;18.50;8.00;;;15.50;99.90;;;;;;5120079;27;20134;-78
2022/11/01 03:19:22;;;;;;;14.65;7.10;;;15.60;99.90;;;;;;5119971;28;20105;-78
2022/11/01 03:22:26;;;;;;;14.05;7.85;;;15.60;99.90;;;;;;5119628;28;20428;-78
2022/11/01 03:28:02;;;;;;;17.65;7.95;;;15.60;99.90;;;;;;5119809;28;20051;-77
2022/11/01 03:30:30;;;;;;;20.83;8.00;;;15.60;99.90;;;;;;5119432;28;20043;-78
2022/11/01 03:32:57;;;;;;;14.75;7.05;;;15.60;99.90;;;;;;5119588;28;20036;-78
2022/11/01 03:35:30;;;;;;;17.35;7.72;;;15.60;99.90;;;;;;5119634;28;20149;-78
2022/11/01 03:38:00;;;;;;;15.30;7.80;;;15.70;99.90;;;;;;5119369;28;20429;-78
2022/11/01 03:40:28;;;;;;;18.92;7.75;;;15.70;99.90;;;;;;5119223;28;20047;-78
2022/11/01 03:43:00;;;;;;;17.08;7.18;;;15.60;99.90;;;;;;5118874;28;20448;-78
2022/11/01 03:45:27;;;;;;;20.95;7.78;;;15.60;99.90;;;;;;5118816;28;20451;-77
2022/11/01 03:47:53;;;;;;;19.15;7.78;;;15.60;99.90;;;;;;5119721;28;20047;-77
2022/11/01 03:50:21;;;;;;;15.80;6.65;;;15.60;99.90;;;;;;5119154;27;20038;-78
2022/11/01 03:52:48;;;;;;;18.50;7.50;;;15.60;99.90;;;;;;5119069;28;20047;-77
2022/11/01 03:55:18;;;;;;;17.20;6.93;;;15.70;99.90;;;;;;5118855;28;20127;-77
2022/11/01 03:57:45;;;;;;;17.33;7.10;;;15.70;99.90;;;;;;5118084;28;20073;-77
2022/11/01 04:00:17;;;;;;;16.75;7.32;;;15.70;99.90;;;;;;5118969;28;20042;-78
2022/11/01 04:02:43;;;;;;;16.13;7.03;;;15.70;99.90;;;;;;5119069;28;20102;-78
2022/11/01 04:05:10;;;;;;;16.90;6.93;;;15.70;99.90;;;;;;5119002;28;20444;-78
2022/11/01 04:07:36;;;;;;;20.17;7.55;;;15.70;99.90;;;;;;5118894;28;20374;-79
2022/11/01 04:10:02;;;;;;;15.75;7.28;;;15.70;99.90;;;;;;5118694;27;20443;-79
2022/11/01 04:12:28;;;;;;;16.08;6.55;;;15.80;99.90;;;;;;5118150;28;20056;-78
2022/11/01 04:20:34;;;;;;;14.30;6.85;;;15.80;99.90;;;;;;5118434;28;20040;-78
2022/11/01 04:23:05;;;;;;;12.30;7.38;;;15.80;99.90;;;;;;5118539;28;20050;-78
2022/11/01 04:25:32;;;;;;;9.68;5.90;;;15.70;99.90;;;;;;5118560;28;20150;-78
2022/11/01 04:27:58;;;;;;;13.80;6.32;;;15.70;99.90;;;;;;5118617;27;20071;-78
2022/11/01 04:30:24;;;;;;;19.83;6.85;;;15.70;99.90;;;;;;5118580;28;20070;-77
2022/11/01 04:32:50;;;;;;;20.38;6.47;;;15.80;99.90;;;;;;5118682;27;20134;-77
2022/11/01 04:35:16;;;;;;;19.38;6.93;;;15.80;99.90;;;;;;5117070;28;20464;-77
2022/11/01 04:37:41;;;;;;;12.10;6.68;;;15.90;99.90;;;;;;5118498;28;20047;-78
2022/11/01 04:40:08;;;;;;;14.18;6.32;;;15.90;99.90;;;;;;5118303;28;20047;-77
2022/11/01 04:42:34;;;;;;;13.45;6.28;;;15.90;99.90;;;;;;5134049;27;20031;-77
2022/11/01 04:45:01;;;;;;;14.88;6.13;;;15.80;99.90;;;;;;5118226;28;20067;-78
2022/11/01 04:47:26;;;;;;;11.75;6.13;;;15.90;99.90;;;;;;5151437;27;20051;-77
2022/11/01 04:49:52;;;;;;;21.25;7.18;;;15.90;99.90;;;;;;5117998;28;20039;-78
2022/11/01 04:52:18;;;;;;;17.55;6.30;;;15.90;99.90;;;;;;5118178;28;20042;-77
2022/11/01 04:54:43;;;;;;;20.23;6.53;;;15.90;99.90;;;;;;5118169;28;20123;-78
2022/11/01 04:57:21;;;;;;;13.77;6.63;;;15.90;99.90;;;;;;5117997;28;20071;-77
2022/11/01 04:59:54;;;;;;;14.57;6.00;;;16.00;99.90;;;;;;5117960;28;20318;-77
2022/11/01 05:02:22;;;;;;;14.63;6.57;;;16.00;99.90;;;;;;5117534;28;20031;-78
2022/11/01 05:04:49;;;;;;;14.60;6.50;;;16.00;99.90;;;;;;5117880;28;20054;-78
2022/11/01 05:07:15;;;;;;;16.38;6.38;;;16.10;99.90;;;;;;5117838;28;20048;-78
2022/11/01 05:09:42;;;;;;;15.00;6.65;;;16.10;99.90;;;;;;5117750;28;20491;-78
2022/11/01 05:12:08;;;;;;;13.68;6.00;;;16.20;99.90;;;;;;5117374;28;20114;-78
2022/11/01 05:14:34;;;;;;;16.40;6.00;;;16.20;99.90;;;;;;5117403;28;20032;-78
2022/11/01 05:17:00;;;;;;;16.60;6.28;;;16.10;99.90;;;;;;5117674;28;20057;-78
2022/11/01 05:19:26;;;;;;;10.93;6.28;;;16.10;99.90;;;;;;5116624;28;20424;-78
2022/11/01 05:21:52;;;;;;;11.77;5.70;;;16.20;99.90;;;;;;5117518;28;20050;-78
2022/11/01 05:24:17;;;;;;;13.77;6.07;;;16.20;99.90;;;;;;5116845;28;20391;-78
2022/11/01 05:26:44;;;;;;;10.93;5.65;;;16.30;99.90;;;;;;5117477;28;20115;-78
2022/11/01 05:29:09;;;;;;;12.55;6.22;;;16.30;99.90;;;;;;5117225;28;20448;-78
2022/11/01 05:31:36;;;;;;;12.00;6.10;;;16.40;99.90;;;;;;5117170;28;20039;-78
2022/11/01 05:34:02;;;;;;;15.50;6.70;;;16.40;99.90;;;;;;5117415;28;20050;-78
2022/11/01 05:36:28;;;;;;;12.23;6.05;;;16.40;99.90;;;;;;5117430;27;20150;-78
2022/11/01 05:38:58;;;;;;;9.98;5.75;;;16.30;99.90;;;;;;5117296;28;20036;-78
2022/11/01 05:41:24;;;;;;;18.35;6.38;;;16.30;99.90;;;;;;5116689;28;20181;-78
2022/11/01 05:43:49;;;;;;;11.07;6.30;;;16.30;99.90;;;;;;5117045;28;20048;-78
2022/11/01 05:46:16;;;;;;;11.00;5.65;;;16.30;99.90;;;;;;5116880;28;20078;-77
2022/11/01 05:48:42;;;;;;;9.43;3.92;;;16.30;99.90;;;;;;5117043;28;20106;-78
2022/11/01 05:51:09;;;;;;;8.77;3.65;;;16.20;99.90;;;;;;5117143;28;20077;-77
2022/11/01 05:53:35;;;;;;;10.35;4.10;;;16.10;99.90;;;;;;5117208;28;20037;-78
2022/11/01 05:56:01;;;;;;;12.95;4.03;;;16.10;99.90;;;;;;5116223;28;20343;-77
2022/11/01 05:58:27;;;;;;;12.18;3.67;;;16.10;99.90;;;;;;5117242;28;20043;-78
2022/11/01 06:01:00;;;;;;;10.90;3.00;;;16.00;99.90;;;;;;5116958;28;20058;-78
2022/11/01 06:03:26;;;;;;;12.25;2.00;;;16.00;99.90;;;;;;5115714;28;20122;-78
2022/11/01 06:05:51;;;;;;;6.05;1.60;;;15.80;99.90;;;;;;5117019;28;20110;-78
2022/11/01 06:08:17;;;;;;;5.18;1.27;;;15.70;99.90;;;;;;5116934;28;20032;-78
2022/11/01 06:10:43;;;;;;;6.03;1.45;;;15.70;99.90;;;;;;5116402;28;20048;-77
2022/11/01 06:13:09;;;;;;;4.97;1.20;;;15.60;99.90;;;;;;5116873;28;20046;-79
2022/11/01 06:15:35;;;;;;;3.58;1.65;;;15.50;99.90;;;;;;5117144;28;20074;-78
2022/11/01 06:18:01;;;;;;;6.70;1.30;;;15.40;99.90;;;;;;5116922;28;20469;-78
2022/11/01 06:20:30;;;;;;;3.53;1.00;;;15.30;99.90;;;;;;5116979;28;20420;-78
2022/11/01 06:22:58;;;;;;;5.20;1.10;;;15.30;99.90;;;;;;5116630;28;20036;-79
2022/11/01 06:25:24;;;;;;;5.82;1.25;;;15.20;99.90;;;;;;5116878;28;20039;-78
2022/11/01 06:27:50;;;;;;;16.27;1.48;;;15.30;99.90;;;;;;5116568;28;20328;-77
2022/11/01 06:30:15;;;;;;;3.13;1.00;;;15.30;99.90;;;;;;5149934;27;20039;-78
2022/11/01 06:32:41;;;;;;;4.65;1.20;;;15.30;99.90;;;;;;5116531;28;20058;-78
2022/11/01 06:35:07;;;;;;;3.78;1.00;;;15.20;99.90;;;;;;5116686;28;20042;-78
2022/11/01 06:37:33;;;;;;;6.40;1.17;;;15.20;99.90;;;;;;5153546;27;20039;-78
2022/11/01 06:39:59;;;;;;;6.28;1.02;;;15.20;99.90;;;;;;5120492;28;20114;-78
2022/11/01 06:42:24;;;;;;;8.20;1.10;;;15.10;99.90;;;;;;5153324;27;20039;-78
2022/11/01 06:44:50;;;;;;;6.35;0.90;;;15.10;99.90;;;;;;5120787;28;20039;-77
2022/11/01 06:47:16;;;;;;;8.43;1.05;;;15.10;99.90;;;;;;5120363;28;20382;-77
2022/11/01 06:49:42;;;;;;;5.28;0.73;;;15.00;99.90;;;;;;5120309;28;20075;-77
2022/11/01 06:52:08;;;;;;;5.78;0.90;;;14.80;99.80;;;;;;5120449;28;20039;-77
2022/11/01 06:54:33;;;;;;;5.75;0.80;;;14.80;99.90;;;;;;5120420;28;20043;-78
2022/11/01 06:56:59;;;;;;;5.63;0.65;;;14.70;99.70;;;;;;5120143;28;20075;-78
2022/11/01 06:59:25;;;;;;;8.95;1.00;;;14.70;99.50;;;;;;5120427;28;20050;-79
2022/11/01 07:01:53;;;;;;;9.82;1.10;;;14.80;99.40;;;;;;5153442;27;20123;-77
2022/11/01 07:04:20;;;;;;;8.95;1.10;;;14.70;99.40;;;;;;5118994;28;20048;-78
2022/11/01 07:06:46;;;;;;;6.43;1.25;;;14.70;99.20;;;;;;5120173;28;20126;-78
2022/11/01 07:09:12;;;;;;;7.15;1.13;;;14.70;99.10;;;;;;5119969;28;20035;-77
2022/11/01 07:11:38;;;;;;;6.82;0.98;;;14.70;99.00;;;;;;5152690;27;20444;-77
2022/11/01 07:14:04;;;;;;;7.38;1.02;;;14.60;98.50;;;;;;5119076;28;20046;-77
2022/11/01 07:16:31;;;;;;;5.25;0.85;;;14.60;98.70;;;;;;5119819;28;20505;-78
2022/11/01 07:18:56;;;;;;;7.63;0.88;;;14.60;98.70;;;;;;5119880;28;20436;-76
2022/11/01 07:21:22;;;;;;;12.52;1.20;;;14.50;98.80;;;;;;5124573;27;20038;-72
2022/11/01 07:23:48;;;;;;;10.27;1.30;;;14.50;98.50;;;;;;5138205;27;20111;-71
2022/11/01 07:26:14;;;;;;;8.70;1.27;;;14.40;98.30;;;;;;5139344;27;20031;-72
2022/11/01 07:28:39;;;;;;;11.05;1.33;;;14.40;98.70;;;;;;5140290;27;20408;-71
2022/11/01 07:31:05;;;;;;;5.95;1.23;;;14.50;98.70;;;;;;5140133;27;20335;-72
2022/11/01 07:33:31;;;;;;;11.00;1.30;;;14.60;98.50;;;;;;5140319;27;20034;-72
2022/11/01 07:35:57;;;;;;;10.65;1.58;;;14.60;98.70;;;;;;5156594;27;20031;-70
2022/11/01 07:38:23;;;;;;;13.70;1.52;;;14.60;98.50;;;;;;5140145;27;20061;-72
2022/11/01 07:40:50;;;;;;;12.13;1.70;;;14.50;98.50;;;;;;5138415;27;20463;-71
2022/11/01 07:43:16;;;;;;;11.88;1.30;;;14.50;98.40;;;;;;5138703;27;20047;-72
2022/11/01 07:45:43;;;;;;;12.10;1.55;;;14.60;98.60;;;;;;5139795;27;20173;-71
2022/11/01 07:48:11;;;;;;;11.02;2.28;;;14.70;98.60;;;;;;5138127;27;20432;-72
2022/11/01 07:50:38;;;;;;;6.43;1.10;;;14.80;98.80;;;;;;5139021;27;20035;-72
2022/11/01 07:53:07;;;;;;;10.65;1.92;;;14.80;98.80;;;;;;5139914;27;20336;-72
2022/11/01 07:55:34;;;;;;;12.57;1.90;;;14.80;98.60;;;;;;5139614;27;20047;-72
2022/11/01 07:58:00;;;;;;;13.90;1.50;;;14.90;98.80;;;;;;5138581;27;20115;-72
2022/11/01 08:00:26;;;;;;;12.90;1.63;;;14.80;98.60;;;;;;5138705;27;20144;-71
2022/11/01 08:02:51;;;;;;;10.48;1.48;;;14.90;98.90;;;;;;5139488;27;20043;-72
2022/11/01 08:05:17;;;;;;;7.70;0.90;;;14.80;98.90;;;;;;5139960;27;20327;-72
2022/11/01 08:07:42;;;;;;;12.63;1.40;;;14.90;99.10;;;;;;5139441;27;20039;-71
2022/11/01 08:10:10;;;;;;;8.65;1.38;;;14.90;98.80;;;;;;5139510;27;20040;-74
2022/11/01 08:12:37;;;;;;;13.32;1.60;;;14.90;98.90;;;;;;5139242;27;20395;-72
2022/11/01 08:15:04;;;;;;;10.88;1.60;;;14.90;99.20;;;;;;5139465;27;20047;-72
2022/11/01 08:17:30;;;;;;;13.50;1.42;;;15.00;99.20;;;;;;5138526;27;20306;-72
2022/11/01 08:19:55;;;;;;;12.85;1.48;;;15.00;99.30;;;;;;5138091;27;20130;-72
2022/11/01 08:22:21;;;;;;;11.60;1.33;;;15.10;99.40;;;;;;5138210;27;20082;-72
2022/11/01 08:24:47;;;;;;;12.77;2.28;;;15.20;99.50;;;;;;5139297;27;20050;-73
2022/11/01 08:27:12;;;;;;;12.35;2.08;;;15.20;99.30;;;;;;5139417;27;20434;-72
2022/11/01 08:29:39;;;;;;;10.82;1.83;;;15.20;99.30;;;;;;5137958;27;20039;-72
2022/11/01 08:32:04;;;;;;;12.20;1.60;;;15.30;99.30;;;;;;5139137;27;20119;-72
2022/11/01 08:34:30;;;;;;;12.82;1.70;;;15.30;98.90;;;;;;5138916;27;20125;-72
2022/11/01 08:36:58;;;;;;;15.75;1.90;;;15.20;98.80;;;;;;5138872;27;20082;-77
2022/11/01 08:39:25;;;;;;;16.05;2.45;;;15.30;99.20;;;;;;5137639;27;20336;-70
2022/11/01 08:41:51;;;;;;;13.05;1.58;;;15.30;99.20;;;;;;5138281;27;20039;-71
2022/11/01 08:44:18;;;;;;;21.08;2.67;;;15.20;98.80;;;;;;5138643;27;20455;-71
2022/11/01 08:46:44;;;;;;;19.48;2.60;;;15.00;98.50;;;;;;5126004;27;20059;-72
2022/11/01 08:49:11;;;;;;;14.02;2.00;;;15.00;98.90;;;;;;5125338;27;20566;-77
2022/11/01 08:51:37;;;;;;;16.08;2.13;;;15.00;98.50;;;;;;5117336;27;20035;-75
2022/11/01 08:54:04;;;;;;;18.02;2.03;;;14.90;98.40;;;;;;5152145;27;20449;-76
2022/11/01 08:56:30;;;;;;;16.88;2.75;;;14.90;98.60;;;;;;5133738;27;20046;-72
2022/11/01 08:58:56;;;;;;;20.70;3.65;;;15.00;98.60;;;;;;5137953;27;20031;-72
2022/11/01 09:01:25;;;;;;;16.60;2.25;;;15.00;98.60;;;;;;5123085;27;20050;-75
2022/11/01 09:03:55;;;;;;;18.65;2.80;;;15.20;98.80;;;;;;5121368;27;20040;-72
2022/11/01 09:06:21;;;;;;;13.70;2.00;;;15.30;98.60;;;;;;5116396;28;20043;-73
2022/11/01 09:08:49;;;;;;;23.80;2.63;;;15.30;98.50;;;;;;5116070;28;20070;-72
2022/11/01 09:11:15;;;;;;;20.17;2.58;;;15.20;98.20;;;;;;5117490;27;20325;-72
2022/11/01 09:13:41;;;;;;;18.95;2.22;;;15.30;98.50;;;;;;5116197;28;20039;-72
2022/11/01 09:16:07;;;;;;;19.75;2.30;;;15.40;98.60;;;;;;5118032;28;20036;-71
2022/11/01 09:18:33;;;;;;;18.10;2.58;;;15.40;98.50;;;;;;5117548;28;20039;-72
2022/11/01 09:20:59;;;;;;;12.65;2.10;;;15.40;98.40;;;;;;5117464;28;20039;-72
2022/11/01 09:23:25;;;;;;;14.50;2.88;;;15.50;98.60;;;;;;5117517;28;20050;-71
2022/11/01 09:25:51;;;;;;;11.80;2.20;;;15.70;98.50;;;;;;5119810;27;20035;-72
2022/11/01 09:28:17;;;;;;;24.30;2.60;;;15.70;98.60;;;;;;5137698;27;20046;-72
2022/11/01 09:30:43;;;;;;;15.68;2.40;;;15.60;98.40;;;;;;5137533;27;20432;-72
2022/11/01 09:33:08;;;;;;;22.48;2.65;;;15.70;98.40;;;;;;5134913;27;20041;-72
2022/11/01 09:35:34;;;;;;;18.90;2.15;;;15.70;98.50;;;;;;5132480;27;20031;-72
2022/11/01 09:38:02;;;;;;;18.80;2.65;;;15.70;98.30;;;;;;5134980;27;20447;-73
2022/11/01 09:40:36;;;;;;;19.90;2.67;;;15.80;98.40;;;;;;5134665;27;20035;-73
2022/11/01 09:43:05;;;;;;;19.35;2.90;;;15.90;98.70;;;;;;5137319;27;20075;-76
2022/11/01 09:45:32;;;;;;;20.02;2.42;;;15.80;98.50;;;;;;5135840;27;20035;-72
2022/11/01 09:47:59;;;;;;;16.58;2.78;;;15.60;98.50;;;;;;5137794;27;20042;-79
2022/11/01 09:50:33;;;;;;;20.23;2.42;;;15.60;98.40;;;;;;5137527;27;20115;-78
2022/11/01 09:53:02;;;;;;;16.17;2.50;;;15.70;98.70;;;;;;5133383;27;20080;-71
2022/11/01 09:55:49;;;;;;;19.27;2.50;;;15.70;98.30;;;;;;5120671;27;20035;-80
2022/11/01 09:58:36;;;;;;;13.88;2.08;;;15.70;98.70;;;;;;5137434;27;20336;-71
2022/11/01 10:01:34;;;;;;;20.05;2.45;;;15.90;98.70;;;;;;5137460;27;20049;-71
2022/11/01 10:04:20;;;;;;;17.08;2.00;;;16.00;98.50;;;;;;5136463;28;20043;-71
2022/11/01 10:06:56;;;;;;;16.25;2.22;;;16.40;98.60;;;;;;5135738;27;20050;-72
2022/11/01 10:09:40;;;;;;;16.98;2.72;;;16.50;98.40;;;;;;5137719;27;20042;-77
2022/11/01 10:12:15;;;;;;;21.52;2.15;;;16.50;98.70;;;;;;5138724;27;20045;-79
2022/11/01 10:14:53;;;;;;;15.32;1.77;;;16.30;98.60;;;;;;5141251;27;20031;-72
2022/11/01 10:17:37;;;;;;;17.98;2.63;;;16.30;98.40;;;;;;5140665;27;20082;-73
2022/11/01 10:20:05;;;;;;;24.63;2.60;;;16.40;98.60;;;;;;5141730;27;20071;-72
2022/11/01 10:22:34;;;;;;;17.77;2.38;;;16.70;98.50;;;;;;5139752;27;20049;-72
2022/11/01 10:25:22;;;;;;;18.95;2.80;;;16.90;98.60;;;;;;5141627;27;20032;-72
2022/11/01 10:27:59;;;;;;;18.58;2.40;;;16.70;98.20;;;;;;5141329;27;20049;-72
2022/11/01 10:30:27;;;;;;;28.15;2.85;;;16.70;98.50;;;;;;5141311;27;20039;-72
2022/11/01 10:33:13;;;;;;;23.52;2.40;;;16.50;98.70;;;;;;5141404;27;20047;-72
2022/11/01 10:35:43;;;;;;;15.63;1.88;;;16.60;98.50;;;;;;5141531;27;20043;-72
2022/11/01 10:38:30;;;;;;;19.10;2.60;;;16.70;98.80;;;;;;5141153;27;20328;-72
2022/11/01 10:41:00;;;;;;;;;;;16.70;98.60;;;;;;5141094;27;20126;-73
2022/11/01 10:43:26;;;;;;;19.55;2.38;;;16.50;98.60;;;;;;5140590;27;19920;-72
2022/11/01 10:45:56;;;;;;;18.60;2.55;;;16.70;98.70;;;;;;5140883;27;20112;-72
2022/11/01 10:48:31;;;;;;;20.58;3.22;;;16.90;98.70;;;;;;5141259;27;20167;-76
2022/11/01 10:51:02;;;;;;;14.65;2.33;;;16.90;98.80;;;;;;5139978;27;20072;-76
2022/11/01 10:53:34;;;;;;;22.13;2.88;;;16.50;99.00;;;;;;5122682;27;20043;-84
2022/11/01 10:56:07;;;;;;;22.73;3.03;;;16.30;99.30;;;;;;5140316;27;20329;-76
2022/11/01 10:58:59;;;;;;;27.05;2.78;;;16.10;99.40;;;;;;5122850;27;20118;-79
2022/11/01 11:01:28;;;;;;;22.67;2.63;;;15.90;99.00;;;;;;5141085;27;20034;-72
2022/11/01 11:03:56;;;;;;;17.42;2.30;;;15.80;99.20;;;;;;5140390;27;20050;-81
2022/11/01 11:06:22;;;;;;;13.20;2.20;;;16.00;99.60;;;;;;5137593;27;20027;-72
2022/11/01 11:08:50;;;;;;;16.02;2.35;;;15.90;98.90;;;;;;5139665;27;20108;-71
2022/11/01 11:11:21;;;;;;;18.67;2.42;;;16.00;99.30;;;;;;5138834;27;20046;-71
2022/11/01 11:13:51;;;;;;;22.58;3.05;;;16.00;99.20;;;;;;5140768;27;20319;-73
2022/11/01 11:16:45;;;;;;;14.13;2.35;;;16.10;99.40;;;;;;5139589;27;20038;-72
2022/11/01 11:19:18;;;;;;;20.33;3.30;;;16.30;99.10;;;;;;5174343;27;20298;-72
2022/11/01 11:21:47;;;;;;;19.25;3.10;;;16.30;99.20;;;;;;5139560;27;20463;-72
2022/11/01 11:24:18;;;;;;;18.60;3.83;;;16.30;99.10;;;;;;5120747;27;20080;-71
2022/11/01 11:26:47;;;;;;;18.92;2.60;;;16.20;99.20;;;;;;5140096;27;20043;-71
2022/11/01 11:29:26;;;;;;;13.82;2.45;;;16.20;99.10;;;;;;5140233;27;20354;-72
2022/11/01 11:31:58;;;;;;;17.88;2.22;;;16.00;99.00;;;;;;5139133;27;20390;-72
2022/11/01 11:34:34;;;;;;;16.63;2.08;;;16.10;99.20;;;;;;5140288;27;20366;-72
2022/11/01 11:37:02;;;;;;;15.52;2.33;;;16.30;99.20;;;;;;5140198;27;20035;-71
2022/11/01 11:39:34;;;;;;;13.18;1.90;;;16.30;99.10;;;;;;5140121;27;20439;-71
2022/11/01 11:42:18;;;;;;;12.90;1.98;;;16.30;99.30;;;;;;5139655;27;20126;-71
2022/11/01 11:44:52;;;;;;;20.52;2.72;;;16.40;99.40;;;;;;5140082;27;20440;-71
2022/11/01 11:47:24;;;;;;;18.20;2.50;;;16.50;99.10;;;;;;5121466;27;20057;-71
2022/11/01 11:49:52;;;;;;;15.35;2.60;;;16.60;99.20;;;;;;5121676;27;20031;-71
2022/11/01 11:52:30;;;;;;;12.40;2.10;;;17.00;99.20;;;;;;5138939;27;20035;-71
2022/11/01 11:54:56;;;;;;;19.70;2.10;;;17.30;99.10;;;;;;5139765;27;20035;-71
2022/11/01 11:57:28;;;;;;;15.30;2.40;;;17.50;98.60;;;;;;5139549;27;20134;-72
2022/11/01 12:00:00;;;;;;;21.58;2.63;;;17.50;98.70;;;;;;5139493;27;20046;-71
2022/11/01 12:02:37;;;;;;;15.73;2.22;;;17.80;98.50;;;;;;5139781;27;20035;-71
2022/11/01 12:05:10;;;;;;;15.63;2.20;;;18.00;98.30;;;;;;5139738;27;20058;-70
2022/11/01 12:07:50;;;;;;;18.80;2.63;;;18.30;97.90;;;;;;5139548;27;20331;-71
2022/11/01 12:10:37;;;;;;;16.00;2.15;;;18.00;98.00;;;;;;5139685;27;20035;-72
2022/11/01 12:13:23;;;;;;;12.38;1.98;;;18.10;98.00;;;;;;5137962;27;20050;-71
2022/11/01 12:16:04;;;;;;;15.38;1.95;;;18.50;97.80;;;;;;5139565;27;20044;-71
2022/11/01 12:18:29;;;;;;;14.43;2.60;;;18.60;97.70;;;;;;5139428;27;20043;-71
2022/11/01 12:20:55;;;;;;;17.27;2.47;;;18.70;97.60;;;;;;5139294;27;20041;-72
2022/11/01 12:23:38;;;;;;;18.85;2.92;;;18.60;97.50;;;;;;5138273;27;20051;-75
2022/11/01 12:26:08;;;;;;;15.13;1.88;;;18.30;97.70;;;;;;5139225;27;20043;-71
2022/11/01 12:28:41;;;;;;;9.18;1.55;;;18.30;98.00;;;;;;5139218;27;20051;-72
2022/11/01 12:31:19;;;;;;;14.02;2.13;;;18.60;97.60;;;;;;5138048;27;20039;-71
2022/11/01 12:34:05;;;;;;;15.13;2.28;;;19.30;97.60;;;;;;5138761;27;20039;-71
2022/11/01 12:36:47;;;;;;;;;;;19.80;96.90;;;;;;5139558;27;20042;-74
2022/11/01 12:39:32;;;;;;;10.27;1.75;;;19.90;97.00;;;;;;5138681;27;19970;-75
2022/11/01 12:42:02;;;;;;;20.23;2.22;;;19.60;97.10;;;;;;5120363;27;20043;-73
2022/11/01 12:44:42;;;;;;;11.10;2.08;;;19.40;97.20;;;;;;5120569;27;20039;-76
2022/11/01 12:47:14;;;;;;;14.93;1.88;;;19.10;96.80;;;;;;5138500;27;20344;-76
2022/11/01 12:49:49;;;;;;;14.98;2.08;;;18.70;97.60;;;;;;5137982;27;20046;-76
2022/11/01 12:52:17;;;;;;;11.98;2.50;;;18.70;97.60;;;;;;5137446;27;20050;-81
2022/11/01 12:54:55;;;;;;;10.88;1.58;;;18.80;97.80;;;;;;5120279;27;20043;-81
2022/11/01 12:57:21;;;;;;;14.55;1.90;;;18.80;97.70;;;;;;5137372;27;20051;-81